createdAt,value
2023-05-21T00:02:20.976Z,73.43
2023-05-21T00:04:47.722Z,73.36
2023-05-21T00:07:15.396Z,73.47
2023-05-21T00:09:42.090Z,73.50
2023-05-21T00:12:09.308Z,73.70
2023-05-21T00:14:36.320Z,73.74
2023-05-21T00:17:02.862Z,73.94
2023-05-21T00:19:29.395Z,74.00
2023-05-21T00:21:56.069Z,73.57
2023-05-21T00:24:22.584Z,73.98
2023-05-21T00:26:49.017Z,74.05
2023-05-21T00:29:15.657Z,74.27
2023-05-21T00:31:42.205Z,74.47
2023-05-21T00:34:08.743Z,74.28
2023-05-21T00:36:35.552Z,74.46
2023-05-21T00:39:02.493Z,74.44
2023-05-21T00:41:30.204Z,74.49
2023-05-21T00:43:57.195Z,74.63
2023-05-21T00:46:24.253Z,74.56
2023-05-21T00:48:51.219Z,74.55
2023-05-21T00:51:18.542Z,74.78
2023-05-21T00:53:46.629Z,75.09
2023-05-21T00:56:13.600Z,74.88
2023-05-21T00:58:40.948Z,75.29
2023-05-21T01:01:13.494Z,75.19
2023-05-21T01:03:41.043Z,75.10
2023-05-21T01:06:09.621Z,75.21
2023-05-21T01:08:37.587Z,75.39
2023-05-21T01:11:05.741Z,75.48
2023-05-21T01:13:34.549Z,75.79
2023-05-21T01:16:01.956Z,75.59
2023-05-21T01:18:29.727Z,75.68
2023-05-21T01:20:56.234Z,75.76
2023-05-21T01:23:22.938Z,75.93
2023-05-21T01:25:49.355Z,75.92
2023-05-21T01:28:15.965Z,76.00
2023-05-21T01:30:43.655Z,76.13
2023-05-21T01:33:18.388Z,76.00
2023-05-21T01:35:57.424Z,76.13
2023-05-21T01:38:57.400Z,76.39
2023-05-21T01:41:27.080Z,76.34
2023-05-21T01:43:56.545Z,76.55
2023-05-21T01:46:27.370Z,76.38
2023-05-21T01:48:56.166Z,76.66
2023-05-21T01:51:23.918Z,76.66
2023-05-21T01:53:50.551Z,76.83
2023-05-21T01:56:16.991Z,76.92
2023-05-21T01:58:44.024Z,77.02
2023-05-21T02:01:11.789Z,77.03
2023-05-21T02:03:38.679Z,77.09
2023-05-21T02:06:05.445Z,77.04
2023-05-21T02:08:31.895Z,77.47
2023-05-21T02:10:58.394Z,77.32
2023-05-21T02:13:26.615Z,77.56
2023-05-21T02:15:54.765Z,77.46
2023-05-21T02:18:21.879Z,77.77
2023-05-21T02:20:48.392Z,77.73
2023-05-21T02:23:14.962Z,77.84
2023-05-21T02:25:41.501Z,77.80
2023-05-21T02:28:07.939Z,77.77
2023-05-21T02:30:34.767Z,78.02
2023-05-21T02:33:02.842Z,78.09
2023-05-21T02:35:29.540Z,77.99
2023-05-21T02:37:59.231Z,78.22
2023-05-21T02:40:26.143Z,78.04
2023-05-21T02:42:52.561Z,78.17
2023-05-21T02:45:19.096Z,78.10
2023-05-21T02:47:45.630Z,78.31
2023-05-21T02:50:14.046Z,78.36
2023-05-21T02:52:41.575Z,78.40
2023-05-21T02:55:09.885Z,78.60
2023-05-21T02:57:36.341Z,78.51
2023-05-21T03:00:03.822Z,78.42
2023-05-21T03:02:30.513Z,78.48
2023-05-21T03:04:56.986Z,78.56
2023-05-21T03:07:24.370Z,78.83
2023-05-21T03:09:50.821Z,78.94
2023-05-21T03:12:17.328Z,78.85
2023-05-21T03:14:44.194Z,78.99
2023-05-21T03:17:13.912Z,79.35
2023-05-21T03:19:41.627Z,79.25
2023-05-21T03:22:08.087Z,79.15
2023-05-21T03:24:35.323Z,79.28
2023-05-21T03:27:02.254Z,79.52
2023-05-21T03:29:29.085Z,79.32
2023-05-21T03:31:56.067Z,79.29
2023-05-21T03:34:23.198Z,79.67
2023-05-21T03:36:50.653Z,79.54
2023-05-21T03:39:17.374Z,79.60
2023-05-21T03:41:43.901Z,79.57
2023-05-21T03:44:10.426Z,79.66
2023-05-21T03:46:36.971Z,79.70
2023-05-21T03:49:03.474Z,79.87
2023-05-21T03:51:31.738Z,79.87
2023-05-21T03:53:59.405Z,80.01
2023-05-21T03:56:26.309Z,80.00
2023-05-21T03:58:53.157Z,79.99
2023-05-21T04:01:19.985Z,80.12
2023-05-21T04:03:46.932Z,79.92
2023-05-21T04:06:13.654Z,80.13
2023-05-21T04:08:40.132Z,79.91
2023-05-21T04:11:06.696Z,80.17
2023-05-21T04:13:33.156Z,80.29
2023-05-21T04:15:59.841Z,80.27
2023-05-21T04:18:26.749Z,80.35
2023-05-21T04:20:53.878Z,80.39
2023-05-21T04:23:23.617Z,80.12
2023-05-21T04:25:50.797Z,80.50
2023-05-21T04:28:21.070Z,80.31
2023-05-21T04:30:47.896Z,80.38
2023-05-21T04:33:18.245Z,80.41
2023-05-21T04:35:49.937Z,80.18
2023-05-21T04:38:20.322Z,80.71
2023-05-21T04:40:51.039Z,80.35
2023-05-21T04:43:17.869Z,80.46
2023-05-21T04:45:44.373Z,80.34
2023-05-21T04:48:10.822Z,80.02
2023-05-21T04:50:37.328Z,80.04
2023-05-21T04:53:03.737Z,80.06
2023-05-21T04:55:30.229Z,79.97
2023-05-21T04:57:57.382Z,80.02
2023-05-21T05:00:26.073Z,80.07
2023-05-21T05:02:52.680Z,80.15
2023-05-21T05:05:19.273Z,79.86
2023-05-21T05:07:45.749Z,79.87
2023-05-21T05:10:12.222Z,79.79
2023-05-21T05:12:38.730Z,79.95
2023-05-21T05:15:05.877Z,79.97
2023-05-21T05:17:32.368Z,80.00
2023-05-21T05:19:58.836Z,80.14
2023-05-21T05:22:25.341Z,80.06
2023-05-21T05:24:51.794Z,80.07
2023-05-21T05:27:18.464Z,79.94
2023-05-21T05:29:45.604Z,79.86
2023-05-21T05:32:12.097Z,79.87
2023-05-21T05:34:38.864Z,79.67
2023-05-21T05:37:05.429Z,79.95
2023-05-21T05:39:31.944Z,79.91
2023-05-21T05:41:58.433Z,79.81
2023-05-21T05:44:24.981Z,79.57
2023-05-21T05:46:51.427Z,79.57
2023-05-21T05:49:17.929Z,79.25
2023-05-21T05:51:44.806Z,79.50
2023-05-21T05:54:11.255Z,79.43
2023-05-21T05:56:37.771Z,79.29
2023-05-21T05:59:04.260Z,79.03
2023-05-21T06:01:31.993Z,78.83
2023-05-21T06:03:58.589Z,78.85
2023-05-21T06:06:24.999Z,78.51
2023-05-21T06:08:51.500Z,78.43
2023-05-21T06:11:20.671Z,78.34
2023-05-21T06:13:47.177Z,78.13
2023-05-21T06:16:13.895Z,78.35
2023-05-21T06:18:40.432Z,78.43
2023-05-21T06:21:06.897Z,78.56
2023-05-21T06:23:35.430Z,78.28
2023-05-21T06:26:01.965Z,78.44
2023-05-21T06:28:28.438Z,78.32
2023-05-21T06:30:54.970Z,78.37
2023-05-21T06:33:21.617Z,78.31
2023-05-21T06:35:48.204Z,78.21
2023-05-21T06:38:14.698Z,78.12
2023-05-21T06:40:41.188Z,78.28
2023-05-21T06:43:07.688Z,78.43
2023-05-21T06:45:34.346Z,78.31
2023-05-21T06:48:01.047Z,78.10
2023-05-21T06:50:27.758Z,78.13
2023-05-21T06:52:54.302Z,78.23
2023-05-21T06:55:21.257Z,78.16
2023-05-21T06:57:47.696Z,77.86
2023-05-21T07:00:14.377Z,78.16
2023-05-21T07:02:40.919Z,77.63
2023-05-21T07:05:08.148Z,77.83
2023-05-21T07:07:34.943Z,77.53
2023-05-21T07:10:01.488Z,77.37
2023-05-21T07:12:27.988Z,77.43
2023-05-21T07:14:54.468Z,77.66
2023-05-21T07:17:21.000Z,77.51
2023-05-21T07:19:47.508Z,77.47
2023-05-21T07:22:14.466Z,77.59
2023-05-21T07:24:40.977Z,77.33
2023-05-21T07:27:14.519Z,77.03
2023-05-21T07:29:52.028Z,76.78
2023-05-21T07:32:18.644Z,76.63
2023-05-21T07:34:45.154Z,76.19
2023-05-21T07:37:11.729Z,75.91
2023-05-21T07:39:38.221Z,75.33
2023-05-21T07:42:05.090Z,75.26
2023-05-21T07:44:31.940Z,75.14
2023-05-21T07:46:58.383Z,75.00
2023-05-21T07:49:24.818Z,74.65
2023-05-21T07:51:51.626Z,74.51
2023-05-21T07:54:19.767Z,74.23
2023-05-21T07:56:46.351Z,73.76
2023-05-21T07:59:14.599Z,73.66
2023-05-21T08:01:41.970Z,73.48
2023-05-21T08:04:08.658Z,73.17
2023-05-21T08:06:35.312Z,73.16
2023-05-21T08:09:02.015Z,72.52
2023-05-21T08:11:28.610Z,72.01
2023-05-21T08:13:55.517Z,71.66
2023-05-21T08:16:23.483Z,70.79
2023-05-21T08:18:50.799Z,70.44
2023-05-21T08:21:17.458Z,69.88
2023-05-21T08:23:44.340Z,70.24
2023-05-21T08:26:10.832Z,69.86
2023-05-21T08:28:40.548Z,69.71
2023-05-21T08:31:06.975Z,69.45
2023-05-21T08:33:37.488Z,69.30
2023-05-21T08:36:05.849Z,68.64
2023-05-21T08:38:32.641Z,68.36
2023-05-21T08:41:00.167Z,68.24
2023-05-21T08:43:28.227Z,67.88
2023-05-21T08:45:57.293Z,67.95
2023-05-21T08:48:24.676Z,67.57
2023-05-21T08:50:54.794Z,67.07
2023-05-21T08:53:28.166Z,66.74
2023-05-21T08:55:57.303Z,67.10
2023-05-21T08:58:24.155Z,67.00
2023-05-21T09:00:51.052Z,66.69
2023-05-21T09:03:17.802Z,66.35
2023-05-21T09:05:45.757Z,66.51
2023-05-21T09:08:19.410Z,66.76
2023-05-21T09:10:52.067Z,66.73
2023-05-21T09:13:20.002Z,66.40
2023-05-21T09:15:47.282Z,66.19
2023-05-21T09:18:14.708Z,66.05
2023-05-21T09:20:41.582Z,66.07
2023-05-21T09:23:16.470Z,65.86
2023-05-21T09:25:47.669Z,65.49
2023-05-21T09:28:16.064Z,65.33
2023-05-21T09:30:52.225Z,64.82
2023-05-21T09:33:31.745Z,64.20
2023-05-21T09:35:58.317Z,63.60
2023-05-21T09:38:25.958Z,63.47
2023-05-21T09:40:56.713Z,63.03
2023-05-21T09:43:23.348Z,62.72
2023-05-21T09:45:58.314Z,62.48
2023-05-21T09:48:52.321Z,61.83
2023-05-21T09:51:21.258Z,61.33
2023-05-21T09:53:54.467Z,60.72
2023-05-21T09:56:26.035Z,61.12
2023-05-21T09:58:54.866Z,60.44
2023-05-21T10:01:21.693Z,59.91
2023-05-21T10:03:53.940Z,59.58
2023-05-21T10:06:21.586Z,59.27
2023-05-21T10:08:51.953Z,58.95
2023-05-21T10:11:22.747Z,58.47
2023-05-21T10:13:57.797Z,57.75
2023-05-21T10:16:24.769Z,57.19
2023-05-21T10:18:54.162Z,57.61
2023-05-21T10:21:22.833Z,57.31
2023-05-21T10:23:51.309Z,57.31
2023-05-21T10:26:19.775Z,57.76
2023-05-21T10:28:46.682Z,57.85
2023-05-21T10:31:13.640Z,58.05
2023-05-21T10:33:42.414Z,58.50
2023-05-21T10:36:09.271Z,57.95
2023-05-21T10:38:38.533Z,58.33
2023-05-21T10:41:07.225Z,59.16
2023-05-21T10:44:02.746Z,59.41
2023-05-21T10:47:05.634Z,59.04
2023-05-21T10:50:12.859Z,58.91
2023-05-21T10:52:57.943Z,58.45
2023-05-21T10:55:51.142Z,57.81
2023-05-21T10:58:42.622Z,57.69
2023-05-21T11:01:10.963Z,58.03
2023-05-21T11:03:38.259Z,57.77
2023-05-21T11:06:08.492Z,57.17
2023-05-21T11:08:35.731Z,56.38
2023-05-21T11:11:03.249Z,55.83
2023-05-21T11:13:48.668Z,55.40
2023-05-21T11:16:16.773Z,55.42
2023-05-21T11:18:44.899Z,55.50
2023-05-21T11:21:15.327Z,55.16
2023-05-21T11:23:50.973Z,55.07
2023-05-21T11:26:22.610Z,55.45
2023-05-21T11:29:04.363Z,55.81
2023-05-21T11:31:41.402Z,55.25
2023-05-21T11:34:14.651Z,54.92
2023-05-21T11:36:44.558Z,55.01
2023-05-21T11:39:17.756Z,54.56
2023-05-21T11:42:04.485Z,54.40
2023-05-21T11:44:39.116Z,54.33
2023-05-21T11:47:06.882Z,54.64
2023-05-21T11:49:34.169Z,54.06
2023-05-21T11:52:01.668Z,54.05
2023-05-21T11:54:34.182Z,54.08
2023-05-21T11:57:01.813Z,53.31
2023-05-21T11:59:28.371Z,53.85
2023-05-21T12:01:59.247Z,53.47
2023-05-21T12:04:36.426Z,53.71
2023-05-21T12:07:09.715Z,53.88
2023-05-21T12:09:47.458Z,54.00
2023-05-21T12:12:19.145Z,54.01
2023-05-21T12:14:47.869Z,54.04
2023-05-21T12:17:28.057Z,53.80
2023-05-21T12:19:56.723Z,53.35
2023-05-21T12:22:24.696Z,53.36
2023-05-21T12:24:51.441Z,53.39
2023-05-21T12:27:18.265Z,53.29
2023-05-21T12:29:46.570Z,52.98
2023-05-21T12:32:15.879Z,52.88
2023-05-21T12:34:46.328Z,52.86
2023-05-21T12:37:21.965Z,52.59
2023-05-21T12:39:50.325Z,52.54
2023-05-21T12:42:23.445Z,52.49
2023-05-21T12:44:52.643Z,52.64
2023-05-21T12:47:19.298Z,52.26
2023-05-21T12:49:49.110Z,52.03
2023-05-21T12:52:19.090Z,51.82
2023-05-21T12:54:49.804Z,51.45
2023-05-21T12:57:17.429Z,51.15
2023-05-21T12:59:48.741Z,50.65
2023-05-21T13:02:40.252Z,50.23
2023-05-21T13:05:08.845Z,49.71
2023-05-21T13:07:37.612Z,49.40
2023-05-21T13:10:05.462Z,49.31
2023-05-21T13:12:33.436Z,49.08
2023-05-21T13:15:02.175Z,48.65
2023-05-21T13:17:29.443Z,48.59
2023-05-21T13:20:15.276Z,48.26
2023-05-21T13:22:46.404Z,48.18
2023-05-21T13:25:15.809Z,48.41
2023-05-21T13:27:42.896Z,48.03
2023-05-21T13:30:11.333Z,47.68
2023-05-21T13:32:38.883Z,47.10
2023-05-21T13:35:05.934Z,46.92
2023-05-21T13:37:36.186Z,46.66
2023-05-21T13:40:06.855Z,46.46
2023-05-21T13:42:34.625Z,46.41
2023-05-21T13:45:01.222Z,46.41
2023-05-21T13:47:27.832Z,46.03
2023-05-21T13:49:54.312Z,45.94
2023-05-21T13:52:21.537Z,45.67
2023-05-21T13:54:48.072Z,45.59
2023-05-21T13:57:15.097Z,45.60
2023-05-21T13:59:41.704Z,45.19
2023-05-21T14:02:09.122Z,45.49
2023-05-21T14:04:37.850Z,45.28
2023-05-21T14:07:06.496Z,45.05
2023-05-21T14:09:33.498Z,45.26
2023-05-21T14:11:59.953Z,44.73
2023-05-21T14:14:26.761Z,44.95
2023-05-21T14:16:53.342Z,44.27
2023-05-21T14:19:19.989Z,44.61
2023-05-21T14:21:46.445Z,44.75
2023-05-21T14:24:15.934Z,44.41
2023-05-21T14:26:43.870Z,44.41
2023-05-21T14:29:10.584Z,44.56
2023-05-21T14:31:37.832Z,44.24
2023-05-21T14:34:05.131Z,44.33
2023-05-21T14:36:32.497Z,44.00
2023-05-21T14:38:59.196Z,43.81
2023-05-21T14:41:26.980Z,43.98
2023-05-21T14:43:53.864Z,43.73
2023-05-21T14:46:20.700Z,43.78
2023-05-21T14:48:47.304Z,43.88
2023-05-21T14:51:14.789Z,43.41
2023-05-21T14:53:41.405Z,43.65
2023-05-21T14:56:08.093Z,43.83
2023-05-21T14:58:34.972Z,43.75
2023-05-21T15:01:02.503Z,43.56
2023-05-21T15:03:29.179Z,43.68
2023-05-21T15:05:55.979Z,43.72
2023-05-21T15:08:22.688Z,43.73
2023-05-21T15:10:50.993Z,43.40
2023-05-21T15:13:17.455Z,43.49
2023-05-21T15:15:44.409Z,43.57
2023-05-21T15:18:11.769Z,43.56
2023-05-21T15:20:38.288Z,43.36
2023-05-21T15:23:16.142Z,43.20
2023-05-21T15:25:43.658Z,43.10
2023-05-21T15:28:11.903Z,42.89
2023-05-21T15:30:38.438Z,42.83
2023-05-21T15:33:04.896Z,42.91
2023-05-21T15:35:31.547Z,42.84
2023-05-21T15:37:58.194Z,42.89
2023-05-21T15:40:26.890Z,43.22
2023-05-21T15:42:53.841Z,43.01
2023-05-21T15:45:20.429Z,43.42
2023-05-21T15:47:48.081Z,43.33
2023-05-21T15:50:14.754Z,43.69
2023-05-21T15:52:42.160Z,43.69
2023-05-21T15:55:11.087Z,43.79
2023-05-21T15:57:37.551Z,43.82
2023-05-21T16:00:05.029Z,44.16
2023-05-21T16:02:31.667Z,44.22
2023-05-21T16:04:58.278Z,44.56
2023-05-21T16:07:24.735Z,44.50
2023-05-21T16:09:51.255Z,45.06
2023-05-21T16:12:17.925Z,44.71
2023-05-21T16:14:49.803Z,45.55
2023-05-21T16:17:16.552Z,45.63
2023-05-21T16:19:43.026Z,45.17
2023-05-21T16:22:10.769Z,45.23
2023-05-21T16:24:38.162Z,45.08
2023-05-21T16:27:05.032Z,45.13
2023-05-21T16:29:31.862Z,45.22
2023-05-21T16:31:58.421Z,45.02
2023-05-21T16:34:24.872Z,45.13
2023-05-21T16:36:51.732Z,44.98
2023-05-21T16:39:18.380Z,44.75
2023-05-21T16:41:44.830Z,44.72
2023-05-21T16:44:11.577Z,44.73
2023-05-21T16:46:38.257Z,44.59
2023-05-21T16:49:04.826Z,44.49
2023-05-21T16:51:31.527Z,44.56
2023-05-21T16:53:58.145Z,44.64
2023-05-21T16:56:24.737Z,44.55
2023-05-21T16:58:51.196Z,44.57
2023-05-21T17:01:17.773Z,44.65
2023-05-21T17:03:44.485Z,44.65
2023-05-21T17:06:11.193Z,44.79
2023-05-21T17:08:37.618Z,45.18
2023-05-21T17:11:04.166Z,45.36
2023-05-21T17:13:30.749Z,45.35
2023-05-21T17:15:57.337Z,45.31
2023-05-21T17:18:23.918Z,45.83
2023-05-21T17:20:50.598Z,45.94
2023-05-21T17:23:17.242Z,46.07
2023-05-21T17:25:43.844Z,46.80
2023-05-21T17:28:11.148Z,46.70
2023-05-21T17:30:37.706Z,46.63
2023-05-21T17:33:04.214Z,46.93
2023-05-21T17:35:30.870Z,46.79
2023-05-21T17:37:57.413Z,47.23
2023-05-21T17:40:24.522Z,47.59
2023-05-21T17:42:52.135Z,47.11
2023-05-21T17:45:18.746Z,47.57
2023-05-21T17:47:45.293Z,47.67
2023-05-21T17:50:11.807Z,47.91
2023-05-21T17:52:38.291Z,47.99
2023-05-21T17:55:05.384Z,48.20
2023-05-21T17:57:31.961Z,48.39
2023-05-21T17:59:58.560Z,48.63
2023-05-21T18:02:26.003Z,48.62
2023-05-21T18:04:52.629Z,48.63
2023-05-21T18:07:19.154Z,48.60
2023-05-21T18:09:45.694Z,49.02
2023-05-21T18:12:12.225Z,48.98
2023-05-21T18:14:38.652Z,49.53
2023-05-21T18:17:05.932Z,49.32
2023-05-21T18:19:32.766Z,49.24
2023-05-21T18:21:59.325Z,49.28
2023-05-21T18:24:25.817Z,49.34
2023-05-21T18:26:52.333Z,49.65
2023-05-21T18:29:18.891Z,50.03
2023-05-21T18:31:45.595Z,50.13
2023-05-21T18:34:12.255Z,50.32
2023-05-21T18:36:39.115Z,50.14
2023-05-21T18:39:07.282Z,50.48
2023-05-21T18:41:33.985Z,50.81
2023-05-21T18:44:03.395Z,50.85
2023-05-21T18:46:29.982Z,51.24
2023-05-21T18:48:56.628Z,51.24
2023-05-21T18:51:23.418Z,51.46
2023-05-21T18:53:49.844Z,51.53
2023-05-21T18:56:17.762Z,51.82
2023-05-21T18:58:44.411Z,52.09
2023-05-21T19:01:10.991Z,52.32
2023-05-21T19:03:38.389Z,52.86
2023-05-21T19:06:05.043Z,53.11
2023-05-21T19:08:31.697Z,53.38
2023-05-21T19:10:58.282Z,53.58
2023-05-21T19:13:26.081Z,53.79
2023-05-21T19:15:52.512Z,54.15
2023-05-21T19:18:19.055Z,54.39
2023-05-21T19:20:45.776Z,54.70
2023-05-21T19:23:12.440Z,54.94
2023-05-21T19:25:39.063Z,55.39
2023-05-21T19:28:05.761Z,55.70
2023-05-21T19:30:34.898Z,56.18
2023-05-21T19:33:02.007Z,56.50
2023-05-21T19:35:28.632Z,56.77
2023-05-21T19:37:58.983Z,57.27
2023-05-21T19:40:26.109Z,57.84
2023-05-21T19:42:52.652Z,57.85
2023-05-21T19:45:21.377Z,58.07
2023-05-21T19:47:48.735Z,58.29
2023-05-21T19:50:15.525Z,58.63
2023-05-21T19:52:42.274Z,58.87
2023-05-21T19:55:11.197Z,59.01
2023-05-21T19:57:37.966Z,59.34
2023-05-21T20:00:05.499Z,59.70
2023-05-21T20:02:32.043Z,59.93
2023-05-21T20:04:59.200Z,60.16
2023-05-21T20:07:25.958Z,60.55
2023-05-21T20:09:52.740Z,60.84
2023-05-21T20:12:19.552Z,61.08
2023-05-21T20:14:48.665Z,61.39
2023-05-21T20:17:18.836Z,61.64
2023-05-21T20:19:48.703Z,61.85
2023-05-21T20:22:16.042Z,62.15
2023-05-21T20:24:43.479Z,62.27
2023-05-21T20:27:10.143Z,62.54
2023-05-21T20:29:36.772Z,62.69
2023-05-21T20:32:03.360Z,62.95
2023-05-21T20:34:29.993Z,63.40
2023-05-21T20:37:00.016Z,63.43
2023-05-21T20:39:29.831Z,63.73
2023-05-21T20:41:56.480Z,63.84
2023-05-21T20:44:23.023Z,64.31
2023-05-21T20:46:49.841Z,64.53
2023-05-21T20:49:17.538Z,64.71
2023-05-21T20:51:44.343Z,64.93
2023-05-21T20:54:11.615Z,65.31
2023-05-21T20:56:42.534Z,65.30
2023-05-21T20:59:11.148Z,65.40
2023-05-21T21:01:38.444Z,65.88
2023-05-21T21:04:05.263Z,65.97
2023-05-21T21:06:31.979Z,66.14
2023-05-21T21:08:58.755Z,66.35
2023-05-21T21:11:26.674Z,66.53
2023-05-21T21:13:53.325Z,66.65
2023-05-21T21:16:19.823Z,66.76
2023-05-21T21:18:47.097Z,67.10
2023-05-21T21:21:13.856Z,67.34
2023-05-21T21:23:40.499Z,67.36
2023-05-21T21:26:07.138Z,67.53
2023-05-21T21:28:33.756Z,67.63
2023-05-21T21:31:00.524Z,67.83
2023-05-21T21:33:27.083Z,67.97
2023-05-21T21:35:53.608Z,68.09
2023-05-21T21:38:20.048Z,68.36
2023-05-21T21:40:46.524Z,68.35
2023-05-21T21:43:13.081Z,68.56
2023-05-21T21:45:39.644Z,68.71
2023-05-21T21:48:06.760Z,68.98
2023-05-21T21:50:33.274Z,69.21
2023-05-21T21:52:59.921Z,69.20
2023-05-21T21:55:26.481Z,69.62
2023-05-21T21:57:53.119Z,69.71
2023-05-21T22:00:22.249Z,69.80
2023-05-21T22:02:48.718Z,69.92
2023-05-21T22:05:17.356Z,69.91
2023-05-21T22:07:47.161Z,70.21
2023-05-21T22:10:17.303Z,69.93
2023-05-21T22:12:44.663Z,70.23
2023-05-21T22:15:18.728Z,70.21
2023-05-21T22:17:48.323Z,70.68
2023-05-21T22:20:15.074Z,70.46
2023-05-21T22:22:41.601Z,70.54
2023-05-21T22:25:08.385Z,70.63
2023-05-21T22:27:34.834Z,70.83
2023-05-21T22:30:01.315Z,71.10
2023-05-21T22:32:27.845Z,71.20
2023-05-21T22:34:54.297Z,71.12
2023-05-21T22:37:21.173Z,71.20
2023-05-21T22:39:47.593Z,71.07
2023-05-21T22:42:14.086Z,71.42
2023-05-21T22:44:40.879Z,71.47
2023-05-21T22:47:09.356Z,71.57
2023-05-21T22:49:38.088Z,71.52
2023-05-21T22:52:06.290Z,71.81
2023-05-21T22:54:33.057Z,71.77
2023-05-21T22:57:01.140Z,71.89
2023-05-21T22:59:32.299Z,71.79
2023-05-21T23:01:59.275Z,71.77
2023-05-21T23:04:42.734Z,72.20
2023-05-21T23:07:10.228Z,72.38
2023-05-21T23:09:36.789Z,72.21
2023-05-21T23:12:03.773Z,72.12
2023-05-21T23:14:30.444Z,72.48
2023-05-21T23:17:01.783Z,72.50
2023-05-21T23:19:29.557Z,72.64
2023-05-21T23:21:56.410Z,72.53
2023-05-21T23:24:22.988Z,72.75
2023-05-21T23:26:49.441Z,72.83
2023-05-21T23:29:15.945Z,72.80
2023-05-21T23:31:42.751Z,73.14
2023-05-21T23:34:09.586Z,72.97
2023-05-21T23:36:36.175Z,73.17
2023-05-21T23:39:02.775Z,73.22
2023-05-21T23:41:29.491Z,73.35
2023-05-21T23:43:56.047Z,73.38
2023-05-21T23:46:22.833Z,73.49
2023-05-21T23:48:49.567Z,73.50
2023-05-21T23:51:16.237Z,73.62
2023-05-21T23:53:42.757Z,73.71
2023-05-21T23:56:09.238Z,73.84
2023-05-21T23:58:35.953Z,73.96
